sensor_id;sensor_type;location;lat;lon;timestamp;temperature;humidity
14924;DHT22;7554;43.600;1.480;2022-07-26T00:01:41;23.50;1.00
14924;DHT22;7554;43.600;1.480;2022-07-26T00:04:09;23.40;1.00
14924;DHT22;7554;43.600;1.480;2022-07-26T00:06:38;23.30;1.00
14924;DHT22;7554;43.600;1.480;2022-07-26T00:09:05;23.20;1.00
14924;DHT22;7554;43.600;1.480;2022-07-26T00:11:33;23.30;1.00
14924;DHT22;7554;43.600;1.480;2022-07-26T00:14:01;23.20;1.00
14924;DHT22;7554;43.600;1.480;2022-07-26T00:16:29;23.20;1.00
14924;DHT22;7554;43.600;1.480;2022-07-26T00:18:56;23.20;1.00
14924;DHT22;7554;43.600;1.480;2022-07-26T00:21:24;23.00;1.00
14924;DHT22;7554;43.600;1.480;2022-07-26T00:23:53;23.00;1.00
14924;DHT22;7554;43.600;1.480;2022-07-26T00:26:20;23.10;1.00
14924;DHT22;7554;43.600;1.480;2022-07-26T00:28:48;23.10;1.00
14924;DHT22;7554;43.600;1.480;2022-07-26T00:31:15;23.10;1.00
14924;DHT22;7554;43.600;1.480;2022-07-26T00:33:43;22.90;1.00
14924;DHT22;7554;43.600;1.480;2022-07-26T00:36:10;22.90;1.00
14924;DHT22;7554;43.600;1.480;2022-07-26T00:38:38;22.90;1.00
14924;DHT22;7554;43.600;1.480;2022-07-26T00:41:08;22.70;1.00
14924;DHT22;7554;43.600;1.480;2022-07-26T00:43:35;22.60;1.00
14924;DHT22;7554;43.600;1.480;2022-07-26T00:46:03;22.60;1.00
14924;DHT22;7554;43.600;1.480;2022-07-26T00:48:30;22.60;1.00
14924;DHT22;7554;43.600;1.480;2022-07-26T00:50:58;22.80;1.00
14924;DHT22;7554;43.600;1.480;2022-07-26T00:53:25;22.70;1.00
14924;DHT22;7554;43.600;1.480;2022-07-26T00:55:53;22.60;1.00
14924;DHT22;7554;43.600;1.480;2022-07-26T00:58:21;22.70;1.00
14924;DHT22;7554;43.600;1.480;2022-07-26T01:00:49;22.80;1.00
14924;DHT22;7554;43.600;1.480;2022-07-26T01:03:16;22.70;1.00
14924;DHT22;7554;43.600;1.480;2022-07-26T01:05:44;22.60;1.00
14924;DHT22;7554;43.600;1.480;2022-07-26T01:08:12;22.60;1.00
14924;DHT22;7554;43.600;1.480;2022-07-26T01:10:39;22.60;1.00
14924;DHT22;7554;43.600;1.480;2022-07-26T01:13:08;22.50;1.00
14924;DHT22;7554;43.600;1.480;2022-07-26T01:15:38;22.50;1.00
14924;DHT22;7554;43.600;1.480;2022-07-26T01:18:05;22.50;1.00
14924;DHT22;7554;43.600;1.480;2022-07-26T01:20:33;22.50;1.00
14924;DHT22;7554;43.600;1.480;2022-07-26T01:23:02;22.50;1.00
14924;DHT22;7554;43.600;1.480;2022-07-26T01:25:31;22.50;1.00
14924;DHT22;7554;43.600;1.480;2022-07-26T01:27:58;22.40;1.00
14924;DHT22;7554;43.600;1.480;2022-07-26T01:30:26;22.50;1.00
14924;DHT22;7554;43.600;1.480;2022-07-26T01:32:54;22.40;1.00
14924;DHT22;7554;43.600;1.480;2022-07-26T01:35:21;22.40;1.00
14924;DHT22;7554;43.600;1.480;2022-07-26T01:37:49;22.30;1.00
14924;DHT22;7554;43.600;1.480;2022-07-26T01:40:18;22.30;1.00
14924;DHT22;7554;43.600;1.480;2022-07-26T01:42:45;22.40;1.00
14924;DHT22;7554;43.600;1.480;2022-07-26T01:45:12;22.40;1.00
14924;DHT22;7554;43.600;1.480;2022-07-26T01:47:40;22.40;1.00
14924;DHT22;7554;43.600;1.480;2022-07-26T01:50:08;22.30;1.00
14924;DHT22;7554;43.600;1.480;2022-07-26T01:52:35;22.40;1.00
14924;DHT22;7554;43.600;1.480;2022-07-26T01:55:04;22.30;1.00
14924;DHT22;7554;43.600;1.480;2022-07-26T01:57:33;22.20;1.00
14924;DHT22;7554;43.600;1.480;2022-07-26T02:00:02;22.30;1.00
14924;DHT22;7554;43.600;1.480;2022-07-26T02:02:30;22.30;1.00
14924;DHT22;7554;43.600;1.480;2022-07-26T02:04:57;22.30;1.00
14924;DHT22;7554;43.600;1.480;2022-07-26T02:07:25;22.10;1.00
14924;DHT22;7554;43.600;1.480;2022-07-26T02:09:53;22.20;1.00
14924;DHT22;7554;43.600;1.480;2022-07-26T02:12:20;22.20;1.00
14924;DHT22;7554;43.600;1.480;2022-07-26T02:14:50;22.20;1.00
14924;DHT22;7554;43.600;1.480;2022-07-26T02:17:17;22.20;1.00
14924;DHT22;7554;43.600;1.480;2022-07-26T02:19:44;22.10;1.00
14924;DHT22;7554;43.600;1.480;2022-07-26T02:22:12;22.10;1.00
14924;DHT22;7554;43.600;1.480;2022-07-26T02:24:40;22.10;1.00
14924;DHT22;7554;43.600;1.480;2022-07-26T02:27:07;22.00;1.00
14924;DHT22;7554;43.600;1.480;2022-07-26T02:29:35;22.00;1.00
14924;DHT22;7554;43.600;1.480;2022-07-26T02:32:04;22.00;1.00
14924;DHT22;7554;43.600;1.480;2022-07-26T02:34:32;21.90;1.00
14924;DHT22;7554;43.600;1.480;2022-07-26T02:37:00;21.90;1.00
14924;DHT22;7554;43.600;1.480;2022-07-26T02:39:27;21.80;1.00
14924;DHT22;7554;43.600;1.480;2022-07-26T02:41:56;21.80;1.00
14924;DHT22;7554;43.600;1.480;2022-07-26T02:44:24;21.70;1.00
14924;DHT22;7554;43.600;1.480;2022-07-26T02:46:52;21.60;1.00
14924;DHT22;7554;43.600;1.480;2022-07-26T02:49:21;21.60;1.00
14924;DHT22;7554;43.600;1.480;2022-07-26T02:51:48;21.40;1.00
14924;DHT22;7554;43.600;1.480;2022-07-26T02:54:17;21.40;1.00
14924;DHT22;7554;43.600;1.480;2022-07-26T02:56:44;21.40;1.00
14924;DHT22;7554;43.600;1.480;2022-07-26T02:59:11;21.30;1.00
14924;DHT22;7554;43.600;1.480;2022-07-26T03:01:39;21.30;1.00
14924;DHT22;7554;43.600;1.480;2022-07-26T03:04:06;21.20;1.00
14924;DHT22;7554;43.600;1.480;2022-07-26T03:06:35;21.20;1.00
14924;DHT22;7554;43.600;1.480;2022-07-26T03:09:02;21.20;1.00
14924;DHT22;7554;43.600;1.480;2022-07-26T03:11:30;21.20;1.00
14924;DHT22;7554;43.600;1.480;2022-07-26T03:13:57;21.00;1.00
14924;DHT22;7554;43.600;1.480;2022-07-26T03:16:25;21.00;1.00
14924;DHT22;7554;43.600;1.480;2022-07-26T03:18:52;21.00;1.00
14924;DHT22;7554;43.600;1.480;2022-07-26T03:21:20;20.90;1.00
14924;DHT22;7554;43.600;1.480;2022-07-26T03:23:49;20.90;1.00
14924;DHT22;7554;43.600;1.480;2022-07-26T03:26:16;20.80;1.00
14924;DHT22;7554;43.600;1.480;2022-07-26T03:28:43;20.70;1.00
14924;DHT22;7554;43.600;1.480;2022-07-26T03:31:11;20.70;1.00
14924;DHT22;7554;43.600;1.480;2022-07-26T03:33:39;20.70;1.00
14924;DHT22;7554;43.600;1.480;2022-07-26T03:36:07;20.70;1.00
14924;DHT22;7554;43.600;1.480;2022-07-26T03:38:35;20.70;1.00
14924;DHT22;7554;43.600;1.480;2022-07-26T03:41:05;20.60;1.00
14924;DHT22;7554;43.600;1.480;2022-07-26T03:43:32;20.70;1.00
14924;DHT22;7554;43.600;1.480;2022-07-26T03:46:00;20.60;1.00
14924;DHT22;7554;43.600;1.480;2022-07-26T03:48:27;20.70;1.00
14924;DHT22;7554;43.600;1.480;2022-07-26T03:50:56;20.70;1.00
14924;DHT22;7554;43.600;1.480;2022-07-26T03:53:23;20.60;1.00
14924;DHT22;7554;43.600;1.480;2022-07-26T03:55:51;20.70;1.00
14924;DHT22;7554;43.600;1.480;2022-07-26T03:58:37;20.60;1.00
14924;DHT22;7554;43.600;1.480;2022-07-26T04:01:05;20.50;1.00
14924;DHT22;7554;43.600;1.480;2022-07-26T04:03:32;20.40;1.00
14924;DHT22;7554;43.600;1.480;2022-07-26T04:06:00;20.40;1.00
14924;DHT22;7554;43.600;1.480;2022-07-26T04:08:27;20.50;1.00
14924;DHT22;7554;43.600;1.480;2022-07-26T04:10:54;20.40;1.00
14924;DHT22;7554;43.600;1.480;2022-07-26T04:13:22;20.40;1.00
14924;DHT22;7554;43.600;1.480;2022-07-26T04:15:51;20.30;1.00
14924;DHT22;7554;43.600;1.480;2022-07-26T04:18:19;20.30;1.00
14924;DHT22;7554;43.600;1.480;2022-07-26T04:20:46;20.30;1.00
14924;DHT22;7554;43.600;1.480;2022-07-26T04:23:13;20.30;1.00
14924;DHT22;7554;43.600;1.480;2022-07-26T04:25:41;20.20;1.00
14924;DHT22;7554;43.600;1.480;2022-07-26T04:28:08;20.10;1.00
14924;DHT22;7554;43.600;1.480;2022-07-26T04:30:36;20.10;1.00
14924;DHT22;7554;43.600;1.480;2022-07-26T04:33:05;20.10;1.00
14924;DHT22;7554;43.600;1.480;2022-07-26T04:35:33;20.10;1.00
14924;DHT22;7554;43.600;1.480;2022-07-26T04:38:01;20.00;1.00
14924;DHT22;7554;43.600;1.480;2022-07-26T04:40:30;20.00;1.00
14924;DHT22;7554;43.600;1.480;2022-07-26T04:42:59;20.10;1.00
14924;DHT22;7554;43.600;1.480;2022-07-26T04:45:27;20.00;1.00
14924;DHT22;7554;43.600;1.480;2022-07-26T04:47:55;20.00;1.00
14924;DHT22;7554;43.600;1.480;2022-07-26T04:50:25;20.20;1.00
14924;DHT22;7554;43.600;1.480;2022-07-26T04:52:53;20.40;1.00
14924;DHT22;7554;43.600;1.480;2022-07-26T04:55:21;20.60;1.00
14924;DHT22;7554;43.600;1.480;2022-07-26T04:57:49;20.80;1.00
14924;DHT22;7554;43.600;1.480;2022-07-26T05:00:19;21.30;1.00
14924;DHT22;7554;43.600;1.480;2022-07-26T05:02:50;21.60;1.00
14924;DHT22;7554;43.600;1.480;2022-07-26T05:05:18;22.10;1.00
14924;DHT22;7554;43.600;1.480;2022-07-26T05:07:50;22.40;1.00
14924;DHT22;7554;43.600;1.480;2022-07-26T05:10:19;22.90;1.00
14924;DHT22;7554;43.600;1.480;2022-07-26T05:12:47;23.60;1.00
14924;DHT22;7554;43.600;1.480;2022-07-26T05:15:15;23.80;1.00
14924;DHT22;7554;43.600;1.480;2022-07-26T05:17:43;24.40;1.00
14924;DHT22;7554;43.600;1.480;2022-07-26T05:20:14;24.70;1.00
14924;DHT22;7554;43.600;1.480;2022-07-26T05:22:42;25.30;1.00
14924;DHT22;7554;43.600;1.480;2022-07-26T05:25:11;25.60;1.00
14924;DHT22;7554;43.600;1.480;2022-07-26T05:27:39;25.90;1.00
14924;DHT22;7554;43.600;1.480;2022-07-26T05:30:08;26.40;1.00
14924;DHT22;7554;43.600;1.480;2022-07-26T05:32:36;26.80;1.00
14924;DHT22;7554;43.600;1.480;2022-07-26T05:35:04;26.60;1.00
14924;DHT22;7554;43.600;1.480;2022-07-26T05:37:32;27.00;1.00
14924;DHT22;7554;43.600;1.480;2022-07-26T05:40:00;27.20;1.00
14924;DHT22;7554;43.600;1.480;2022-07-26T05:42:28;27.80;1.00
14924;DHT22;7554;43.600;1.480;2022-07-26T05:44:56;27.90;1.00
14924;DHT22;7554;43.600;1.480;2022-07-26T05:47:24;28.20;1.00
14924;DHT22;7554;43.600;1.480;2022-07-26T05:49:52;28.60;1.00
14924;DHT22;7554;43.600;1.480;2022-07-26T05:52:20;28.40;1.00
14924;DHT22;7554;43.600;1.480;2022-07-26T05:54:48;29.30;1.00
14924;DHT22;7554;43.600;1.480;2022-07-26T05:57:15;29.70;1.00
14924;DHT22;7554;43.600;1.480;2022-07-26T05:59:44;30.20;1.00
14924;DHT22;7554;43.600;1.480;2022-07-26T06:02:11;30.10;1.00
14924;DHT22;7554;43.600;1.480;2022-07-26T06:04:39;30.50;1.00
14924;DHT22;7554;43.600;1.480;2022-07-26T06:07:06;30.90;1.00
14924;DHT22;7554;43.600;1.480;2022-07-26T06:09:34;30.90;1.00
14924;DHT22;7554;43.600;1.480;2022-07-26T06:12:01;31.40;1.00
14924;DHT22;7554;43.600;1.480;2022-07-26T06:14:29;31.60;1.00
14924;DHT22;7554;43.600;1.480;2022-07-26T06:16:57;32.00;1.00
14924;DHT22;7554;43.600;1.480;2022-07-26T06:19:25;31.90;1.00
14924;DHT22;7554;43.600;1.480;2022-07-26T06:21:52;31.90;1.00
14924;DHT22;7554;43.600;1.480;2022-07-26T06:24:20;31.80;1.00
14924;DHT22;7554;43.600;1.480;2022-07-26T06:26:48;32.00;1.00
14924;DHT22;7554;43.600;1.480;2022-07-26T06:29:18;32.70;1.00
14924;DHT22;7554;43.600;1.480;2022-07-26T06:31:45;32.70;1.00
14924;DHT22;7554;43.600;1.480;2022-07-26T06:34:14;32.20;1.00
14924;DHT22;7554;43.600;1.480;2022-07-26T06:36:41;32.20;1.00
14924;DHT22;7554;43.600;1.480;2022-07-26T06:39:09;30.80;1.00
14924;DHT22;7554;43.600;1.480;2022-07-26T06:41:36;30.90;1.00
14924;DHT22;7554;43.600;1.480;2022-07-26T06:44:04;30.60;1.00
14924;DHT22;7554;43.600;1.480;2022-07-26T06:46:31;30.90;1.00
14924;DHT22;7554;43.600;1.480;2022-07-26T06:48:59;31.90;1.00
14924;DHT22;7554;43.600;1.480;2022-07-26T06:51:28;32.80;1.00
14924;DHT22;7554;43.600;1.480;2022-07-26T06:53:55;32.30;1.00
14924;DHT22;7554;43.600;1.480;2022-07-26T06:56:23;33.30;1.00
14924;DHT22;7554;43.600;1.480;2022-07-26T06:58:50;34.90;1.00
14924;DHT22;7554;43.600;1.480;2022-07-26T07:01:20;36.00;1.00
14924;DHT22;7554;43.600;1.480;2022-07-26T07:03:48;36.60;1.00
14924;DHT22;7554;43.600;1.480;2022-07-26T07:06:15;32.00;1.00
14924;DHT22;7554;43.600;1.480;2022-07-26T07:08:46;32.90;1.00
14924;DHT22;7554;43.600;1.480;2022-07-26T07:11:14;31.20;1.00
14924;DHT22;7554;43.600;1.480;2022-07-26T07:13:41;33.40;1.00
14924;DHT22;7554;43.600;1.480;2022-07-26T07:16:09;32.60;1.00
14924;DHT22;7554;43.600;1.480;2022-07-26T07:18:36;32.60;1.00
14924;DHT22;7554;43.600;1.480;2022-07-26T07:21:04;30.00;1.00
14924;DHT22;7554;43.600;1.480;2022-07-26T07:23:31;29.60;1.00
14924;DHT22;7554;43.600;1.480;2022-07-26T07:26:00;32.40;1.00
14924;DHT22;7554;43.600;1.480;2022-07-26T07:28:28;30.30;1.00
14924;DHT22;7554;43.600;1.480;2022-07-26T07:30:58;33.10;1.00
14924;DHT22;7554;43.600;1.480;2022-07-26T07:33:25;32.10;1.00
14924;DHT22;7554;43.600;1.480;2022-07-26T07:35:53;33.30;1.00
14924;DHT22;7554;43.600;1.480;2022-07-26T07:38:20;35.80;1.00
14924;DHT22;7554;43.600;1.480;2022-07-26T07:40:48;37.40;1.00
14924;DHT22;7554;43.600;1.480;2022-07-26T07:43:17;37.20;1.00
14924;DHT22;7554;43.600;1.480;2022-07-26T07:45:44;37.10;1.00
14924;DHT22;7554;43.600;1.480;2022-07-26T07:48:12;36.10;1.00
14924;DHT22;7554;43.600;1.480;2022-07-26T07:50:39;36.00;1.00
14924;DHT22;7554;43.600;1.480;2022-07-26T07:53:07;36.80;1.00
14924;DHT22;7554;43.600;1.480;2022-07-26T07:55:34;38.80;1.00
14924;DHT22;7554;43.600;1.480;2022-07-26T07:58:02;39.20;1.00
14924;DHT22;7554;43.600;1.480;2022-07-26T08:00:31;38.90;1.00
14924;DHT22;7554;43.600;1.480;2022-07-26T08:02:58;38.70;1.00
14924;DHT22;7554;43.600;1.480;2022-07-26T08:05:26;39.20;1.00
14924;DHT22;7554;43.600;1.480;2022-07-26T08:07:53;38.30;1.00
14924;DHT22;7554;43.600;1.480;2022-07-26T08:10:21;38.60;1.00
14924;DHT22;7554;43.600;1.480;2022-07-26T08:12:48;39.60;1.00
14924;DHT22;7554;43.600;1.480;2022-07-26T08:15:16;40.60;1.00
14924;DHT22;7554;43.600;1.480;2022-07-26T08:17:45;40.60;1.00
14924;DHT22;7554;43.600;1.480;2022-07-26T08:20:12;36.90;1.00
14924;DHT22;7554;43.600;1.480;2022-07-26T08:22:40;39.00;1.00
14924;DHT22;7554;43.600;1.480;2022-07-26T08:25:08;39.70;1.00
14924;DHT22;7554;43.600;1.480;2022-07-26T08:27:36;40.20;1.00
14924;DHT22;7554;43.600;1.480;2022-07-26T08:30:04;39.60;1.00
14924;DHT22;7554;43.600;1.480;2022-07-26T08:32:32;41.40;1.00
14924;DHT22;7554;43.600;1.480;2022-07-26T08:35:01;40.80;1.00
14924;DHT22;7554;43.600;1.480;2022-07-26T08:37:28;41.30;1.00
14924;DHT22;7554;43.600;1.480;2022-07-26T08:39:56;41.40;1.00
14924;DHT22;7554;43.600;1.480;2022-07-26T08:42:23;40.80;1.00
14924;DHT22;7554;43.600;1.480;2022-07-26T08:44:51;41.00;1.00
14924;DHT22;7554;43.600;1.480;2022-07-26T08:47:20;41.40;1.00
14924;DHT22;7554;43.600;1.480;2022-07-26T08:49:47;40.50;1.00
14924;DHT22;7554;43.600;1.480;2022-07-26T08:52:16;40.00;1.00
14924;DHT22;7554;43.600;1.480;2022-07-26T08:54:45;41.10;1.00
14924;DHT22;7554;43.600;1.480;2022-07-26T08:57:13;38.50;1.00
14924;DHT22;7554;43.600;1.480;2022-07-26T08:59:41;40.00;1.00
14924;DHT22;7554;43.600;1.480;2022-07-26T09:02:11;41.40;1.00
14924;DHT22;7554;43.600;1.480;2022-07-26T09:04:40;39.70;1.00
14924;DHT22;7554;43.600;1.480;2022-07-26T09:07:09;41.70;1.00
14924;DHT22;7554;43.600;1.480;2022-07-26T09:09:39;40.40;1.00
14924;DHT22;7554;43.600;1.480;2022-07-26T09:12:23;42.00;1.00
14924;DHT22;7554;43.600;1.480;2022-07-26T09:14:51;42.10;1.00
14924;DHT22;7554;43.600;1.480;2022-07-26T09:17:20;41.20;1.00
14924;DHT22;7554;43.600;1.480;2022-07-26T09:20:05;42.10;1.00
14924;DHT22;7554;43.600;1.480;2022-07-26T09:22:34;41.30;1.00
14924;DHT22;7554;43.600;1.480;2022-07-26T09:25:19;38.70;1.00
14924;DHT22;7554;43.600;1.480;2022-07-26T09:27:47;39.70;1.00
14924;DHT22;7554;43.600;1.480;2022-07-26T09:30:15;40.80;1.00
14924;DHT22;7554;43.600;1.480;2022-07-26T09:32:58;40.80;1.00
14924;DHT22;7554;43.600;1.480;2022-07-26T09:35:27;41.00;1.00
14924;DHT22;7554;43.600;1.480;2022-07-26T09:37:55;40.80;1.00
14924;DHT22;7554;43.600;1.480;2022-07-26T09:40:31;40.80;1.00
14924;DHT22;7554;43.600;1.480;2022-07-26T09:43:01;39.90;1.00
14924;DHT22;7554;43.600;1.480;2022-07-26T09:45:30;39.70;1.00
14924;DHT22;7554;43.600;1.480;2022-07-26T09:47:59;39.90;1.00
14924;DHT22;7554;43.600;1.480;2022-07-26T09:50:28;39.30;1.00
14924;DHT22;7554;43.600;1.480;2022-07-26T09:53:05;38.70;1.00
14924;DHT22;7554;43.600;1.480;2022-07-26T09:55:54;37.40;1.00
14924;DHT22;7554;43.600;1.480;2022-07-26T09:58:23;34.20;1.00
14924;DHT22;7554;43.600;1.480;2022-07-26T10:00:50;32.20;1.00
14924;DHT22;7554;43.600;1.480;2022-07-26T10:03:18;31.30;1.00
14924;DHT22;7554;43.600;1.480;2022-07-26T10:05:45;30.80;1.00
14924;DHT22;7554;43.600;1.480;2022-07-26T10:08:13;30.50;1.00
14924;DHT22;7554;43.600;1.480;2022-07-26T10:10:44;30.50;1.00
14924;DHT22;7554;43.600;1.480;2022-07-26T10:13:14;30.10;1.00
14924;DHT22;7554;43.600;1.480;2022-07-26T10:15:43;29.70;1.00
14924;DHT22;7554;43.600;1.480;2022-07-26T10:20:55;29.70;1.00
14924;DHT22;7554;43.600;1.480;2022-07-26T10:23:40;29.70;1.00
14924;DHT22;7554;43.600;1.480;2022-07-26T10:26:10;29.40;1.00
14924;DHT22;7554;43.600;1.480;2022-07-26T10:28:40;29.40;1.00
14924;DHT22;7554;43.600;1.480;2022-07-26T10:31:28;29.40;1.00
14924;DHT22;7554;43.600;1.480;2022-07-26T10:34:00;29.20;1.00
14924;DHT22;7554;43.600;1.480;2022-07-26T10:36:33;29.50;1.00
14924;DHT22;7554;43.600;1.480;2022-07-26T10:39:05;29.20;1.00
14924;DHT22;7554;43.600;1.480;2022-07-26T10:41:34;29.50;1.00
14924;DHT22;7554;43.600;1.480;2022-07-26T10:44:17;29.60;1.00
14924;DHT22;7554;43.600;1.480;2022-07-26T10:46:58;29.90;1.00
14924;DHT22;7554;43.600;1.480;2022-07-26T10:49:31;29.70;1.00
14924;DHT22;7554;43.600;1.480;2022-07-26T10:52:10;29.10;1.00
14924;DHT22;7554;43.600;1.480;2022-07-26T10:57:44;29.00;1.00
14924;DHT22;7554;43.600;1.480;2022-07-26T11:00:22;29.20;1.00
14924;DHT22;7554;43.600;1.480;2022-07-26T11:02:56;28.60;1.00
14924;DHT22;7554;43.600;1.480;2022-07-26T11:05:28;28.80;1.00
14924;DHT22;7554;43.600;1.480;2022-07-26T11:08:03;28.60;1.00
14924;DHT22;7554;43.600;1.480;2022-07-26T11:10:36;28.50;1.00
14924;DHT22;7554;43.600;1.480;2022-07-26T11:13:13;28.50;1.00
14924;DHT22;7554;43.600;1.480;2022-07-26T11:15:45;28.80;1.00
14924;DHT22;7554;43.600;1.480;2022-07-26T11:18:23;28.90;1.00
14924;DHT22;7554;43.600;1.480;2022-07-26T11:20:53;28.90;1.00
14924;DHT22;7554;43.600;1.480;2022-07-26T11:23:30;28.80;1.00
14924;DHT22;7554;43.600;1.480;2022-07-26T11:26:14;28.90;1.00
14924;DHT22;7554;43.600;1.480;2022-07-26T11:28:44;28.80;1.00
14924;DHT22;7554;43.600;1.480;2022-07-26T11:31:14;28.50;1.00
14924;DHT22;7554;43.600;1.480;2022-07-26T11:33:44;28.70;1.00
14924;DHT22;7554;43.600;1.480;2022-07-26T11:36:14;28.60;1.00
14924;DHT22;7554;43.600;1.480;2022-07-26T11:38:49;28.70;1.00
14924;DHT22;7554;43.600;1.480;2022-07-26T11:41:21;28.30;1.00
14924;DHT22;7554;43.600;1.480;2022-07-26T11:43:49;28.30;1.00
14924;DHT22;7554;43.600;1.480;2022-07-26T11:46:19;28.00;1.00
14924;DHT22;7554;43.600;1.480;2022-07-26T11:48:47;28.10;1.00
14924;DHT22;7554;43.600;1.480;2022-07-26T11:51:17;27.90;1.00
14924;DHT22;7554;43.600;1.480;2022-07-26T11:53:45;28.20;1.00
14924;DHT22;7554;43.600;1.480;2022-07-26T11:56:14;28.10;1.00
14924;DHT22;7554;43.600;1.480;2022-07-26T11:58:43;28.20;1.00
14924;DHT22;7554;43.600;1.480;2022-07-26T12:01:13;27.90;1.00
14924;DHT22;7554;43.600;1.480;2022-07-26T12:03:44;28.00;1.00
14924;DHT22;7554;43.600;1.480;2022-07-26T12:06:14;28.00;1.00
14924;DHT22;7554;43.600;1.480;2022-07-26T12:08:45;28.10;1.00
14924;DHT22;7554;43.600;1.480;2022-07-26T12:11:14;28.20;1.00
14924;DHT22;7554;43.600;1.480;2022-07-26T12:13:55;28.40;1.00
14924;DHT22;7554;43.600;1.480;2022-07-26T12:16:34;28.30;1.00
14924;DHT22;7554;43.600;1.480;2022-07-26T12:19:04;28.30;1.00
14924;DHT22;7554;43.600;1.480;2022-07-26T12:21:39;28.20;1.00
14924;DHT22;7554;43.600;1.480;2022-07-26T12:24:08;28.20;1.00
14924;DHT22;7554;43.600;1.480;2022-07-26T12:26:36;28.20;1.00
14924;DHT22;7554;43.600;1.480;2022-07-26T12:29:04;28.30;1.00
14924;DHT22;7554;43.600;1.480;2022-07-26T12:32:00;28.10;1.00
14924;DHT22;7554;43.600;1.480;2022-07-26T12:34:30;28.20;1.00
14924;DHT22;7554;43.600;1.480;2022-07-26T12:37:09;28.20;1.00
14924;DHT22;7554;43.600;1.480;2022-07-26T12:39:37;28.10;1.00
14924;DHT22;7554;43.600;1.480;2022-07-26T12:42:22;27.90;1.00
14924;DHT22;7554;43.600;1.480;2022-07-26T12:44:50;28.20;1.00
14924;DHT22;7554;43.600;1.480;2022-07-26T12:47:18;28.20;1.00
14924;DHT22;7554;43.600;1.480;2022-07-26T12:49:47;28.10;1.00
14924;DHT22;7554;43.600;1.480;2022-07-26T12:52:16;28.20;1.00
14924;DHT22;7554;43.600;1.480;2022-07-26T12:54:45;28.30;1.00
14924;DHT22;7554;43.600;1.480;2022-07-26T12:57:13;28.10;1.00
14924;DHT22;7554;43.600;1.480;2022-07-26T12:59:40;28.00;1.00
14924;DHT22;7554;43.600;1.480;2022-07-26T13:02:12;27.80;1.00
14924;DHT22;7554;43.600;1.480;2022-07-26T13:04:39;27.90;1.00
14924;DHT22;7554;43.600;1.480;2022-07-26T13:07:08;27.90;1.00
14924;DHT22;7554;43.600;1.480;2022-07-26T13:09:36;28.10;1.00
14924;DHT22;7554;43.600;1.480;2022-07-26T13:12:05;28.00;1.00
14924;DHT22;7554;43.600;1.480;2022-07-26T13:14:33;28.00;1.00
14924;DHT22;7554;43.600;1.480;2022-07-26T13:17:02;27.80;1.00
14924;DHT22;7554;43.600;1.480;2022-07-26T13:19:30;28.00;1.00
14924;DHT22;7554;43.600;1.480;2022-07-26T13:21:59;28.10;1.00
14924;DHT22;7554;43.600;1.480;2022-07-26T13:24:31;28.10;1.00
14924;DHT22;7554;43.600;1.480;2022-07-26T13:27:00;28.00;1.00
14924;DHT22;7554;43.600;1.480;2022-07-26T13:29:28;28.00;1.00
14924;DHT22;7554;43.600;1.480;2022-07-26T13:31:56;28.00;1.00
14924;DHT22;7554;43.600;1.480;2022-07-26T13:34:24;28.00;1.00
14924;DHT22;7554;43.600;1.480;2022-07-26T13:36:52;28.00;1.00
14924;DHT22;7554;43.600;1.480;2022-07-26T13:39:19;28.00;1.00
14924;DHT22;7554;43.600;1.480;2022-07-26T13:41:49;27.90;1.00
14924;DHT22;7554;43.600;1.480;2022-07-26T13:44:16;28.10;1.00
14924;DHT22;7554;43.600;1.480;2022-07-26T13:46:44;28.00;1.00
14924;DHT22;7554;43.600;1.480;2022-07-26T13:49:11;28.00;1.00
14924;DHT22;7554;43.600;1.480;2022-07-26T13:51:39;28.00;1.00
14924;DHT22;7554;43.600;1.480;2022-07-26T13:54:27;28.10;1.00
14924;DHT22;7554;43.600;1.480;2022-07-26T13:56:57;28.10;1.00
14924;DHT22;7554;43.600;1.480;2022-07-26T13:59:26;28.10;1.00
14924;DHT22;7554;43.600;1.480;2022-07-26T14:01:54;28.00;1.00
14924;DHT22;7554;43.600;1.480;2022-07-26T14:04:22;27.90;1.00
14924;DHT22;7554;43.600;1.480;2022-07-26T14:06:50;27.90;1.00
14924;DHT22;7554;43.600;1.480;2022-07-26T14:09:19;27.90;1.00
14924;DHT22;7554;43.600;1.480;2022-07-26T14:11:47;27.80;1.00
14924;DHT22;7554;43.600;1.480;2022-07-26T14:14:16;27.90;1.00
14924;DHT22;7554;43.600;1.480;2022-07-26T14:16:44;27.90;1.00
14924;DHT22;7554;43.600;1.480;2022-07-26T14:19:12;28.00;1.00
14924;DHT22;7554;43.600;1.480;2022-07-26T14:21:39;27.90;1.00
14924;DHT22;7554;43.600;1.480;2022-07-26T14:24:07;27.90;1.00
14924;DHT22;7554;43.600;1.480;2022-07-26T14:26:35;27.80;1.00
14924;DHT22;7554;43.600;1.480;2022-07-26T14:29:02;27.90;1.00
14924;DHT22;7554;43.600;1.480;2022-07-26T14:31:31;27.90;1.00
14924;DHT22;7554;43.600;1.480;2022-07-26T14:33:59;27.70;1.00
14924;DHT22;7554;43.600;1.480;2022-07-26T14:36:26;27.80;1.00
14924;DHT22;7554;43.600;1.480;2022-07-26T14:38:54;27.80;1.00
14924;DHT22;7554;43.600;1.480;2022-07-26T14:41:22;27.80;1.00
14924;DHT22;7554;43.600;1.480;2022-07-26T14:43:49;27.80;1.00
14924;DHT22;7554;43.600;1.480;2022-07-26T14:46:17;27.70;1.00
14924;DHT22;7554;43.600;1.480;2022-07-26T14:48:46;27.60;1.00
14924;DHT22;7554;43.600;1.480;2022-07-26T14:51:14;27.60;1.00
14924;DHT22;7554;43.600;1.480;2022-07-26T14:53:41;27.70;1.00
14924;DHT22;7554;43.600;1.480;2022-07-26T14:56:09;27.70;1.00
14924;DHT22;7554;43.600;1.480;2022-07-26T14:58:37;27.70;1.00
14924;DHT22;7554;43.600;1.480;2022-07-26T15:01:04;27.80;1.00
14924;DHT22;7554;43.600;1.480;2022-07-26T15:03:32;27.80;1.00
14924;DHT22;7554;43.600;1.480;2022-07-26T15:06:01;27.80;1.00
14924;DHT22;7554;43.600;1.480;2022-07-26T15:08:29;27.80;1.00
14924;DHT22;7554;43.600;1.480;2022-07-26T15:10:57;27.70;1.00
14924;DHT22;7554;43.600;1.480;2022-07-26T15:13:25;27.70;1.00
14924;DHT22;7554;43.600;1.480;2022-07-26T15:15:52;27.70;1.00
14924;DHT22;7554;43.600;1.480;2022-07-26T15:18:21;27.60;1.00
14924;DHT22;7554;43.600;1.480;2022-07-26T15:20:48;27.70;1.00
14924;DHT22;7554;43.600;1.480;2022-07-26T15:23:18;27.80;1.00
14924;DHT22;7554;43.600;1.480;2022-07-26T15:25:45;27.80;1.00
14924;DHT22;7554;43.600;1.480;2022-07-26T15:28:13;27.80;1.00
14924;DHT22;7554;43.600;1.480;2022-07-26T15:30:41;27.70;1.00
14924;DHT22;7554;43.600;1.480;2022-07-26T15:33:08;27.60;1.00
14924;DHT22;7554;43.600;1.480;2022-07-26T15:35:36;27.60;1.00
14924;DHT22;7554;43.600;1.480;2022-07-26T15:38:05;27.60;1.00
14924;DHT22;7554;43.600;1.480;2022-07-26T15:40:35;27.60;1.00
14924;DHT22;7554;43.600;1.480;2022-07-26T15:43:04;27.70;1.00
14924;DHT22;7554;43.600;1.480;2022-07-26T15:45:32;27.80;1.00
14924;DHT22;7554;43.600;1.480;2022-07-26T15:47:59;27.80;1.00
14924;DHT22;7554;43.600;1.480;2022-07-26T15:50:29;27.70;1.00
14924;DHT22;7554;43.600;1.480;2022-07-26T15:52:57;27.60;1.00
14924;DHT22;7554;43.600;1.480;2022-07-26T15:55:24;27.40;1.00
14924;DHT22;7554;43.600;1.480;2022-07-26T15:57:54;27.40;1.00
14924;DHT22;7554;43.600;1.480;2022-07-26T16:00:21;27.40;1.00
14924;DHT22;7554;43.600;1.480;2022-07-26T16:02:49;27.40;1.00
14924;DHT22;7554;43.600;1.480;2022-07-26T16:05:17;27.40;1.00
14924;DHT22;7554;43.600;1.480;2022-07-26T16:07:45;27.40;1.00
14924;DHT22;7554;43.600;1.480;2022-07-26T16:10:13;27.40;1.00
14924;DHT22;7554;43.600;1.480;2022-07-26T16:12:41;27.40;1.00
14924;DHT22;7554;43.600;1.480;2022-07-26T16:15:11;27.40;1.00
14924;DHT22;7554;43.600;1.480;2022-07-26T16:17:39;27.30;1.00
14924;DHT22;7554;43.600;1.480;2022-07-26T16:20:07;27.30;1.00